Orbital elements of FENGYUN 1C DEB
| Launched | 9 May 1999 |
| Flight ended | – |
| Launch site | Taiyuan Space Center, PRC |
| Owner | People's Republic of China |
| NORAD ID | 30760 |
| Date fetched |
Epoch osculation |
Inc. [°] |
Ecc. | RA asc node [hr] |
Arg Peri. [°] |
Mean anom [°] |
Mean motion [rev/day] |
Abs. mag |
| Date fetched |
Epoch osculation |
Inc. [°] |
Ecc. | RA asc node [hr] |
Arg Peri. [°] |
Mean anom [°] |
Mean motion [rev/day] |
Abs. mag |
| 2026 May 07 17:58 | 2026 May 05 10:03:12 | 98.8295 | 0.00519 | 8.2187 | 300.5827 | 59.0226 | 14.05298 | – |
| 2026 May 06 17:57 | 2026 May 05 10:03:12 | 98.8295 | 0.00519 | 8.2187 | 300.5827 | 59.0226 | 14.05298 | – |
| 2026 May 05 17:57 | 2026 May 05 10:03:12 | 98.8295 | 0.00519 | 8.2187 | 300.5827 | 59.0226 | 14.05298 | – |
| 2026 May 04 17:57 | 2026 Apr 30 10:26:23 | 98.8293 | 0.00521 | 7.8951 | 314.8328 | 59.0226 | 14.05298 | – |
| 2026 May 03 17:57 | 2026 Apr 30 10:26:23 | 98.8293 | 0.00521 | 7.8951 | 314.8328 | 59.0226 | 14.05298 | – |
| 2026 May 02 17:57 | 2026 Apr 30 10:26:23 | 98.8293 | 0.00521 | 7.8951 | 314.8328 | 59.0226 | 14.05298 | – |
| 2026 May 01 17:56 | 2026 Apr 30 10:26:23 | 98.8293 | 0.00521 | 7.8951 | 314.8328 | 59.0226 | 14.05298 | – |
| 2026 Apr 30 17:56 | 2026 Apr 30 10:26:23 | 98.8293 | 0.00521 | 7.8951 | 314.8328 | 59.0226 | 14.05298 | – |
| 2026 Apr 29 17:57 | 2026 Apr 24 12:36:43 | 98.8298 | 0.00524 | 7.5114 | 331.7200 | 59.0226 | 14.05298 | – |
| 2026 Apr 28 17:56 | 2026 Apr 24 12:36:43 | 98.8298 | 0.00524 | 7.5114 | 331.7200 | 59.0226 | 14.05298 | – |
| 2026 Apr 27 17:58 | 2026 Apr 24 12:36:43 | 98.8298 | 0.00524 | 7.5114 | 331.7200 | 59.0226 | 14.05298 | – |
| 2026 Apr 26 17:58 | 2026 Apr 24 12:36:43 | 98.8298 | 0.00524 | 7.5114 | 331.7200 | 59.0226 | 14.05298 | – |
| 2026 Apr 25 17:58 | 2026 Apr 24 12:36:43 | 98.8298 | 0.00524 | 7.5114 | 331.7200 | 59.0226 | 14.05298 | – |
| 2026 Apr 24 17:59 | 2026 Apr 24 12:36:43 | 98.8298 | 0.00524 | 7.5114 | 331.7200 | 59.0226 | 14.05298 | – |
| 2026 Apr 23 17:57 | 2026 Apr 18 23:19:40 | 98.8301 | 0.00527 | 7.1507 | 347.3561 | 59.0226 | 14.05298 | – |
| 2026 Apr 22 17:57 | 2026 Apr 18 23:19:40 | 98.8301 | 0.00527 | 7.1507 | 347.3561 | 59.0226 | 14.05298 | – |
| 2026 Apr 21 17:57 | 2026 Apr 18 23:19:40 | 98.8301 | 0.00527 | 7.1507 | 347.3561 | 59.0226 | 14.05298 | – |
| 2026 Apr 20 17:57 | 2026 Apr 18 23:19:40 | 98.8301 | 0.00527 | 7.1507 | 347.3561 | 59.0226 | 14.05298 | – |
| 2026 Apr 19 17:58 | 2026 Apr 18 23:19:40 | 98.8301 | 0.00527 | 7.1507 | 347.3561 | 59.0226 | 14.05298 | – |
| 2026 Apr 18 17:56 | 2026 Apr 13 04:55:02 | 98.8300 | 0.00530 | 6.7763 | 3.4403 | 59.0226 | 14.05298 | – |
| 2026 Apr 16 17:57 | 2026 Apr 13 04:55:02 | 98.8300 | 0.00530 | 6.7763 | 3.4403 | 59.0226 | 14.05298 | – |
| 2026 Apr 14 17:57 | 2026 Apr 13 04:55:02 | 98.8300 | 0.00530 | 6.7763 | 3.4403 | 59.0226 | 14.05298 | – |
| 2026 Apr 13 17:57 | 2026 Apr 13 04:55:02 | 98.8300 | 0.00530 | 6.7763 | 3.4403 | 59.0226 | 14.05298 | – |
| 2026 Apr 12 17:57 | 2026 Apr 07 17:20:28 | 98.8294 | 0.00533 | 6.4203 | 18.7287 | 59.0226 | 14.05298 | – |
| 2026 Apr 11 17:57 | 2026 Apr 07 17:20:28 | 98.8294 | 0.00533 | 6.4203 | 18.7287 | 59.0226 | 14.05298 | – |
| 2026 Apr 10 17:58 | 2026 Apr 07 17:20:28 | 98.8294 | 0.00533 | 6.4203 | 18.7287 | 59.0226 | 14.05298 | – |